sensor_id;sensor_type;location;lat;lon;timestamp;P1;durP1;ratioP1;P2;durP2;ratioP2
5752;SDS011;2901;42.140;24.760;2023-06-14T00:02:09;5.55;;;5.07;;
5752;SDS011;2901;42.140;24.760;2023-06-14T00:04:34;7.00;;;5.55;;
5752;SDS011;2901;42.140;24.760;2023-06-14T00:07:01;6.30;;;5.80;;
5752;SDS011;2901;42.140;24.760;2023-06-14T00:09:26;6.15;;;5.65;;
5752;SDS011;2901;42.140;24.760;2023-06-14T00:11:52;5.53;;;5.20;;
5752;SDS011;2901;42.140;24.760;2023-06-14T00:14:17;6.38;;;5.95;;
5752;SDS011;2901;42.140;24.760;2023-06-14T00:16:43;5.32;;;5.13;;
5752;SDS011;2901;42.140;24.760;2023-06-14T00:19:08;5.80;;;5.50;;
5752;SDS011;2901;42.140;24.760;2023-06-14T00:21:35;6.72;;;6.25;;
5752;SDS011;2901;42.140;24.760;2023-06-14T00:24:01;5.75;;;5.35;;
5752;SDS011;2901;42.140;24.760;2023-06-14T00:26:27;6.13;;;5.82;;
5752;SDS011;2901;42.140;24.760;2023-06-14T00:28:53;7.03;;;6.05;;
5752;SDS011;2901;42.140;24.760;2023-06-14T00:31:19;5.97;;;5.57;;
5752;SDS011;2901;42.140;24.760;2023-06-14T00:33:44;7.07;;;6.47;;
5752;SDS011;2901;42.140;24.760;2023-06-14T00:36:10;6.20;;;5.85;;
5752;SDS011;2901;42.140;24.760;2023-06-14T00:38:35;6.03;;;5.57;;
5752;SDS011;2901;42.140;24.760;2023-06-14T00:41:01;6.60;;;6.10;;
5752;SDS011;2901;42.140;24.760;2023-06-14T00:43:26;6.28;;;5.80;;
5752;SDS011;2901;42.140;24.760;2023-06-14T00:45:51;6.13;;;5.75;;
5752;SDS011;2901;42.140;24.760;2023-06-14T00:48:17;6.40;;;6.00;;
5752;SDS011;2901;42.140;24.760;2023-06-14T00:50:43;5.68;;;5.47;;
5752;SDS011;2901;42.140;24.760;2023-06-14T00:53:14;6.30;;;5.80;;
5752;SDS011;2901;42.140;24.760;2023-06-14T00:55:40;7.13;;;6.78;;
5752;SDS011;2901;42.140;24.760;2023-06-14T00:58:06;7.10;;;6.50;;
5752;SDS011;2901;42.140;24.760;2023-06-14T01:00:31;8.43;;;7.18;;
5752;SDS011;2901;42.140;24.760;2023-06-14T01:02:56;6.72;;;6.13;;
5752;SDS011;2901;42.140;24.760;2023-06-14T01:05:22;6.75;;;6.32;;
5752;SDS011;2901;42.140;24.760;2023-06-14T01:16:11;6.78;;;6.38;;
5752;SDS011;2901;42.140;24.760;2023-06-14T01:18:37;7.35;;;6.80;;
5752;SDS011;2901;42.140;24.760;2023-06-14T01:21:03;7.43;;;6.90;;
5752;SDS011;2901;42.140;24.760;2023-06-14T01:23:33;8.52;;;7.82;;
5752;SDS011;2901;42.140;24.760;2023-06-14T01:25:59;6.80;;;6.22;;
5752;SDS011;2901;42.140;24.760;2023-06-14T01:28:28;7.43;;;6.78;;
5752;SDS011;2901;42.140;24.760;2023-06-14T01:30:57;7.97;;;7.45;;
5752;SDS011;2901;42.140;24.760;2023-06-14T01:33:26;7.90;;;7.47;;
5752;SDS011;2901;42.140;24.760;2023-06-14T01:35:53;7.15;;;6.65;;
5752;SDS011;2901;42.140;24.760;2023-06-14T01:38:21;8.13;;;6.57;;
5752;SDS011;2901;42.140;24.760;2023-06-14T01:40:49;7.47;;;6.93;;
5752;SDS011;2901;42.140;24.760;2023-06-14T01:43:16;7.65;;;7.10;;
5752;SDS011;2901;42.140;24.760;2023-06-14T01:45:42;7.05;;;6.75;;
5752;SDS011;2901;42.140;24.760;2023-06-14T01:48:08;7.55;;;7.07;;
5752;SDS011;2901;42.140;24.760;2023-06-14T01:50:34;7.78;;;7.05;;
5752;SDS011;2901;42.140;24.760;2023-06-14T01:53:00;7.18;;;6.57;;
5752;SDS011;2901;42.140;24.760;2023-06-14T01:55:25;7.47;;;6.97;;
5752;SDS011;2901;42.140;24.760;2023-06-14T01:57:51;6.45;;;5.90;;
5752;SDS011;2901;42.140;24.760;2023-06-14T02:00:17;8.02;;;7.50;;
5752;SDS011;2901;42.140;24.760;2023-06-14T02:02:44;7.13;;;6.82;;
5752;SDS011;2901;42.140;24.760;2023-06-14T02:05:10;7.32;;;6.95;;
5752;SDS011;2901;42.140;24.760;2023-06-14T02:07:36;7.75;;;7.05;;
5752;SDS011;2901;42.140;24.760;2023-06-14T02:10:02;9.23;;;7.28;;
5752;SDS011;2901;42.140;24.760;2023-06-14T02:12:31;6.70;;;6.40;;
5752;SDS011;2901;42.140;24.760;2023-06-14T02:14:56;6.25;;;5.97;;
5752;SDS011;2901;42.140;24.760;2023-06-14T02:17:23;7.80;;;7.30;;
5752;SDS011;2901;42.140;24.760;2023-06-14T02:19:48;7.25;;;6.75;;
5752;SDS011;2901;42.140;24.760;2023-06-14T02:22:14;7.43;;;6.90;;
5752;SDS011;2901;42.140;24.760;2023-06-14T02:24:41;10.77;;;7.18;;
5752;SDS011;2901;42.140;24.760;2023-06-14T02:27:06;8.65;;;7.82;;
5752;SDS011;2901;42.140;24.760;2023-06-14T02:29:33;8.45;;;6.88;;
5752;SDS011;2901;42.140;24.760;2023-06-14T02:31:59;7.20;;;6.88;;
5752;SDS011;2901;42.140;24.760;2023-06-14T02:34:24;6.55;;;6.15;;
5752;SDS011;2901;42.140;24.760;2023-06-14T02:36:49;6.45;;;6.03;;
5752;SDS011;2901;42.140;24.760;2023-06-14T02:39:15;6.88;;;6.47;;
5752;SDS011;2901;42.140;24.760;2023-06-14T02:41:41;7.28;;;6.50;;
5752;SDS011;2901;42.140;24.760;2023-06-14T02:44:06;8.02;;;7.25;;
5752;SDS011;2901;42.140;24.760;2023-06-14T02:46:32;7.20;;;6.90;;
5752;SDS011;2901;42.140;24.760;2023-06-14T02:48:58;7.35;;;6.97;;
5752;SDS011;2901;42.140;24.760;2023-06-14T02:51:24;7.40;;;6.75;;
5752;SDS011;2901;42.140;24.760;2023-06-14T02:53:49;6.97;;;6.47;;
5752;SDS011;2901;42.140;24.760;2023-06-14T02:56:14;7.45;;;6.80;;
5752;SDS011;2901;42.140;24.760;2023-06-14T02:58:42;6.70;;;6.32;;
5752;SDS011;2901;42.140;24.760;2023-06-14T03:01:08;7.45;;;6.95;;
5752;SDS011;2901;42.140;24.760;2023-06-14T03:03:38;8.32;;;7.53;;
5752;SDS011;2901;42.140;24.760;2023-06-14T03:06:03;7.43;;;6.75;;
5752;SDS011;2901;42.140;24.760;2023-06-14T03:08:32;10.10;;;6.25;;
5752;SDS011;2901;42.140;24.760;2023-06-14T03:11:03;7.18;;;6.47;;
5752;SDS011;2901;42.140;24.760;2023-06-14T03:13:30;8.90;;;6.63;;
5752;SDS011;2901;42.140;24.760;2023-06-14T03:15:57;5.80;;;5.40;;
5752;SDS011;2901;42.140;24.760;2023-06-14T03:18:23;6.50;;;6.10;;
5752;SDS011;2901;42.140;24.760;2023-06-14T03:20:48;5.90;;;5.60;;
5752;SDS011;2901;42.140;24.760;2023-06-14T03:23:14;6.28;;;5.78;;
5752;SDS011;2901;42.140;24.760;2023-06-14T03:25:39;5.95;;;5.55;;
5752;SDS011;2901;42.140;24.760;2023-06-14T03:28:07;7.53;;;5.43;;
5752;SDS011;2901;42.140;24.760;2023-06-14T03:30:32;6.72;;;6.18;;
5752;SDS011;2901;42.140;24.760;2023-06-14T03:32:58;6.68;;;6.03;;
5752;SDS011;2901;42.140;24.760;2023-06-14T03:35:26;10.57;;;6.25;;
5752;SDS011;2901;42.140;24.760;2023-06-14T03:37:51;6.45;;;5.68;;
5752;SDS011;2901;42.140;24.760;2023-06-14T03:40:17;8.23;;;7.43;;
5752;SDS011;2901;42.140;24.760;2023-06-14T03:42:44;12.10;;;7.95;;
5752;SDS011;2901;42.140;24.760;2023-06-14T03:45:09;7.20;;;6.20;;
5752;SDS011;2901;42.140;24.760;2023-06-14T03:47:35;10.15;;;6.28;;
5752;SDS011;2901;42.140;24.760;2023-06-14T03:50:01;7.63;;;6.50;;
5752;SDS011;2901;42.140;24.760;2023-06-14T03:52:27;6.35;;;5.75;;
5752;SDS011;2901;42.140;24.760;2023-06-14T03:54:53;5.47;;;5.00;;
5752;SDS011;2901;42.140;24.760;2023-06-14T03:57:19;6.05;;;5.85;;
5752;SDS011;2901;42.140;24.760;2023-06-14T03:59:45;9.23;;;5.93;;
5752;SDS011;2901;42.140;24.760;2023-06-14T04:02:10;6.03;;;5.72;;
5752;SDS011;2901;42.140;24.760;2023-06-14T04:04:36;12.27;;;10.20;;
5752;SDS011;2901;42.140;24.760;2023-06-14T04:07:02;8.73;;;7.63;;
5752;SDS011;2901;42.140;24.760;2023-06-14T04:09:31;7.82;;;6.05;;
5752;SDS011;2901;42.140;24.760;2023-06-14T04:11:56;10.25;;;6.90;;
5752;SDS011;2901;42.140;24.760;2023-06-14T04:14:22;5.95;;;5.50;;
5752;SDS011;2901;42.140;24.760;2023-06-14T04:16:47;8.70;;;5.95;;
5752;SDS011;2901;42.140;24.760;2023-06-14T04:19:14;6.35;;;5.93;;
5752;SDS011;2901;42.140;24.760;2023-06-14T04:21:40;6.55;;;5.88;;
5752;SDS011;2901;42.140;24.760;2023-06-14T04:24:05;6.25;;;5.65;;
5752;SDS011;2901;42.140;24.760;2023-06-14T04:26:31;13.23;;;5.50;;
5752;SDS011;2901;42.140;24.760;2023-06-14T04:28:58;28.65;;;7.43;;
5752;SDS011;2901;42.140;24.760;2023-06-14T04:31:27;19.00;;;5.50;;
5752;SDS011;2901;42.140;24.760;2023-06-14T04:33:58;5.53;;;5.00;;
5752;SDS011;2901;42.140;24.760;2023-06-14T04:36:24;10.65;;;5.90;;
5752;SDS011;2901;42.140;24.760;2023-06-14T04:38:50;8.10;;;6.15;;
5752;SDS011;2901;42.140;24.760;2023-06-14T04:41:19;5.78;;;5.38;;
5752;SDS011;2901;42.140;24.760;2023-06-14T04:43:45;4.90;;;4.70;;
5752;SDS011;2901;42.140;24.760;2023-06-14T04:46:14;5.78;;;5.28;;
5752;SDS011;2901;42.140;24.760;2023-06-14T04:48:39;6.45;;;5.32;;
5752;SDS011;2901;42.140;24.760;2023-06-14T04:51:06;5.45;;;4.97;;
5752;SDS011;2901;42.140;24.760;2023-06-14T04:53:32;5.25;;;4.93;;
5752;SDS011;2901;42.140;24.760;2023-06-14T04:55:58;5.90;;;5.30;;
5752;SDS011;2901;42.140;24.760;2023-06-14T04:58:23;9.27;;;5.50;;
5752;SDS011;2901;42.140;24.760;2023-06-14T05:00:48;6.43;;;5.90;;
5752;SDS011;2901;42.140;24.760;2023-06-14T05:03:14;7.55;;;7.00;;
5752;SDS011;2901;42.140;24.760;2023-06-14T05:05:40;9.70;;;7.05;;
5752;SDS011;2901;42.140;24.760;2023-06-14T05:08:06;7.07;;;6.57;;
5752;SDS011;2901;42.140;24.760;2023-06-14T05:10:32;10.43;;;7.60;;
5752;SDS011;2901;42.140;24.760;2023-06-14T05:12:59;16.73;;;7.53;;
5752;SDS011;2901;42.140;24.760;2023-06-14T05:15:25;7.05;;;6.45;;
5752;SDS011;2901;42.140;24.760;2023-06-14T05:17:51;7.70;;;7.20;;
5752;SDS011;2901;42.140;24.760;2023-06-14T05:20:20;6.95;;;6.55;;
5752;SDS011;2901;42.140;24.760;2023-06-14T05:22:50;11.30;;;9.05;;
5752;SDS011;2901;42.140;24.760;2023-06-14T05:25:19;9.57;;;8.88;;
5752;SDS011;2901;42.140;24.760;2023-06-14T05:27:45;9.48;;;8.80;;
5752;SDS011;2901;42.140;24.760;2023-06-14T05:30:11;9.55;;;8.85;;
5752;SDS011;2901;42.140;24.760;2023-06-14T05:32:37;10.25;;;9.48;;
5752;SDS011;2901;42.140;24.760;2023-06-14T05:35:03;9.25;;;8.52;;
5752;SDS011;2901;42.140;24.760;2023-06-14T05:37:29;9.77;;;9.10;;
5752;SDS011;2901;42.140;24.760;2023-06-14T05:39:55;10.50;;;9.50;;
5752;SDS011;2901;42.140;24.760;2023-06-14T05:42:21;10.02;;;9.10;;
5752;SDS011;2901;42.140;24.760;2023-06-14T05:44:46;10.73;;;9.57;;
5752;SDS011;2901;42.140;24.760;2023-06-14T05:47:13;10.27;;;9.40;;
5752;SDS011;2901;42.140;24.760;2023-06-14T05:49:38;10.73;;;9.50;;
5752;SDS011;2901;42.140;24.760;2023-06-14T05:52:04;11.10;;;10.00;;
5752;SDS011;2901;42.140;24.760;2023-06-14T05:54:30;15.70;;;9.50;;
5752;SDS011;2901;42.140;24.760;2023-06-14T05:56:55;10.95;;;9.82;;
5752;SDS011;2901;42.140;24.760;2023-06-14T05:59:20;11.35;;;10.45;;
5752;SDS011;2901;42.140;24.760;2023-06-14T06:01:46;9.85;;;9.07;;
5752;SDS011;2901;42.140;24.760;2023-06-14T06:04:11;11.77;;;10.57;;
5752;SDS011;2901;42.140;24.760;2023-06-14T06:06:36;10.95;;;10.10;;
5752;SDS011;2901;42.140;24.760;2023-06-14T06:09:02;11.52;;;10.60;;
5752;SDS011;2901;42.140;24.760;2023-06-14T06:11:27;12.73;;;11.63;;
5752;SDS011;2901;42.140;24.760;2023-06-14T06:13:53;11.05;;;10.50;;
5752;SDS011;2901;42.140;24.760;2023-06-14T06:16:18;13.38;;;12.40;;
5752;SDS011;2901;42.140;24.760;2023-06-14T06:18:44;14.02;;;11.77;;
5752;SDS011;2901;42.140;24.760;2023-06-14T06:21:09;12.00;;;11.02;;
5752;SDS011;2901;42.140;24.760;2023-06-14T06:23:34;12.65;;;11.40;;
5752;SDS011;2901;42.140;24.760;2023-06-14T06:26:00;13.45;;;12.30;;
5752;SDS011;2901;42.140;24.760;2023-06-14T06:28:26;13.68;;;12.40;;
5752;SDS011;2901;42.140;24.760;2023-06-14T06:30:51;11.10;;;10.32;;
5752;SDS011;2901;42.140;24.760;2023-06-14T06:33:17;12.88;;;11.88;;
5752;SDS011;2901;42.140;24.760;2023-06-14T06:35:42;11.80;;;11.15;;
5752;SDS011;2901;42.140;24.760;2023-06-14T06:38:08;12.30;;;11.07;;
5752;SDS011;2901;42.140;24.760;2023-06-14T06:40:35;11.68;;;10.55;;
5752;SDS011;2901;42.140;24.760;2023-06-14T06:43:01;9.52;;;8.82;;
5752;SDS011;2901;42.140;24.760;2023-06-14T06:45:28;10.20;;;9.10;;
5752;SDS011;2901;42.140;24.760;2023-06-14T06:47:53;11.35;;;10.63;;
5752;SDS011;2901;42.140;24.760;2023-06-14T06:50:19;9.80;;;9.20;;
5752;SDS011;2901;42.140;24.760;2023-06-14T06:52:50;10.32;;;9.70;;
5752;SDS011;2901;42.140;24.760;2023-06-14T06:55:16;11.30;;;10.35;;
5752;SDS011;2901;42.140;24.760;2023-06-14T06:57:41;10.98;;;9.85;;
5752;SDS011;2901;42.140;24.760;2023-06-14T07:00:07;12.10;;;11.10;;
5752;SDS011;2901;42.140;24.760;2023-06-14T07:02:34;11.20;;;10.10;;
5752;SDS011;2901;42.140;24.760;2023-06-14T07:04:59;11.30;;;10.30;;
5752;SDS011;2901;42.140;24.760;2023-06-14T07:07:25;10.80;;;10.20;;
5752;SDS011;2901;42.140;24.760;2023-06-14T07:09:50;11.23;;;10.30;;
5752;SDS011;2901;42.140;24.760;2023-06-14T07:12:16;12.52;;;10.40;;
5752;SDS011;2901;42.140;24.760;2023-06-14T07:14:41;21.30;;;10.82;;
5752;SDS011;2901;42.140;24.760;2023-06-14T07:17:06;19.45;;;13.25;;
5752;SDS011;2901;42.140;24.760;2023-06-14T07:19:32;12.15;;;11.05;;
5752;SDS011;2901;42.140;24.760;2023-06-14T07:21:58;13.43;;;10.77;;
5752;SDS011;2901;42.140;24.760;2023-06-14T07:24:23;11.48;;;10.30;;
5752;SDS011;2901;42.140;24.760;2023-06-14T07:26:49;13.30;;;10.50;;
5752;SDS011;2901;42.140;24.760;2023-06-14T07:29:14;13.75;;;12.35;;
5752;SDS011;2901;42.140;24.760;2023-06-14T07:31:41;12.65;;;11.60;;
5752;SDS011;2901;42.140;24.760;2023-06-14T07:34:06;11.50;;;10.52;;
5752;SDS011;2901;42.140;24.760;2023-06-14T07:36:32;14.00;;;11.27;;
5752;SDS011;2901;42.140;24.760;2023-06-14T07:38:57;12.48;;;11.20;;
5752;SDS011;2901;42.140;24.760;2023-06-14T07:41:23;12.13;;;9.93;;
5752;SDS011;2901;42.140;24.760;2023-06-14T07:43:48;13.77;;;10.27;;
5752;SDS011;2901;42.140;24.760;2023-06-14T07:46:14;14.32;;;12.75;;
5752;SDS011;2901;42.140;24.760;2023-06-14T07:48:39;16.02;;;12.15;;
5752;SDS011;2901;42.140;24.760;2023-06-14T07:51:05;15.15;;;9.88;;
5752;SDS011;2901;42.140;24.760;2023-06-14T07:53:30;9.98;;;9.05;;
5752;SDS011;2901;42.140;24.760;2023-06-14T07:55:56;10.70;;;9.73;;
5752;SDS011;2901;42.140;24.760;2023-06-14T07:58:22;9.75;;;8.75;;
5752;SDS011;2901;42.140;24.760;2023-06-14T08:00:47;9.68;;;8.77;;
5752;SDS011;2901;42.140;24.760;2023-06-14T08:03:13;15.23;;;8.98;;
5752;SDS011;2901;42.140;24.760;2023-06-14T08:05:39;10.18;;;9.23;;
5752;SDS011;2901;42.140;24.760;2023-06-14T08:08:04;10.80;;;9.45;;
5752;SDS011;2901;42.140;24.760;2023-06-14T08:10:30;22.15;;;10.82;;
5752;SDS011;2901;42.140;24.760;2023-06-14T08:12:55;14.25;;;9.52;;
5752;SDS011;2901;42.140;24.760;2023-06-14T08:15:21;9.73;;;8.85;;
5752;SDS011;2901;42.140;24.760;2023-06-14T08:17:46;8.77;;;7.97;;
5752;SDS011;2901;42.140;24.760;2023-06-14T08:20:12;12.93;;;8.07;;
5752;SDS011;2901;42.140;24.760;2023-06-14T08:22:38;9.25;;;8.45;;
5752;SDS011;2901;42.140;24.760;2023-06-14T08:25:07;14.30;;;9.45;;
5752;SDS011;2901;42.140;24.760;2023-06-14T08:27:33;10.88;;;10.00;;
5752;SDS011;2901;42.140;24.760;2023-06-14T08:29:58;12.82;;;9.43;;
5752;SDS011;2901;42.140;24.760;2023-06-14T08:32:23;10.57;;;9.65;;
5752;SDS011;2901;42.140;24.760;2023-06-14T08:34:49;9.38;;;8.88;;
5752;SDS011;2901;42.140;24.760;2023-06-14T08:37:14;8.88;;;8.20;;
5752;SDS011;2901;42.140;24.760;2023-06-14T08:39:40;10.18;;;8.40;;
5752;SDS011;2901;42.140;24.760;2023-06-14T08:42:07;10.32;;;9.55;;
5752;SDS011;2901;42.140;24.760;2023-06-14T08:44:34;13.00;;;9.07;;
5752;SDS011;2901;42.140;24.760;2023-06-14T08:46:59;8.43;;;7.78;;
5752;SDS011;2901;42.140;24.760;2023-06-14T08:49:25;8.43;;;7.82;;
5752;SDS011;2901;42.140;24.760;2023-06-14T08:51:56;9.40;;;7.88;;
5752;SDS011;2901;42.140;24.760;2023-06-14T08:54:23;10.70;;;8.32;;
5752;SDS011;2901;42.140;24.760;2023-06-14T08:56:52;7.93;;;7.28;;
5752;SDS011;2901;42.140;24.760;2023-06-14T08:59:18;7.95;;;7.35;;
5752;SDS011;2901;42.140;24.760;2023-06-14T09:01:46;10.93;;;8.35;;
5752;SDS011;2901;42.140;24.760;2023-06-14T09:04:12;15.88;;;8.23;;
5752;SDS011;2901;42.140;24.760;2023-06-14T09:06:38;9.10;;;8.35;;
5752;SDS011;2901;42.140;24.760;2023-06-14T09:09:03;9.00;;;8.18;;
5752;SDS011;2901;42.140;24.760;2023-06-14T09:11:29;8.80;;;8.10;;
5752;SDS011;2901;42.140;24.760;2023-06-14T09:13:55;9.02;;;8.15;;
5752;SDS011;2901;42.140;24.760;2023-06-14T09:16:20;8.65;;;7.95;;
5752;SDS011;2901;42.140;24.760;2023-06-14T09:18:46;8.20;;;7.80;;
5752;SDS011;2901;42.140;24.760;2023-06-14T09:21:13;15.30;;;8.98;;
5752;SDS011;2901;42.140;24.760;2023-06-14T09:23:40;10.02;;;9.07;;
5752;SDS011;2901;42.140;24.760;2023-06-14T09:26:15;13.27;;;8.50;;
5752;SDS011;2901;42.140;24.760;2023-06-14T09:28:45;9.32;;;8.27;;
5752;SDS011;2901;42.140;24.760;2023-06-14T09:31:12;9.75;;;8.98;;
5752;SDS011;2901;42.140;24.760;2023-06-14T09:33:41;16.02;;;9.20;;
5752;SDS011;2901;42.140;24.760;2023-06-14T09:36:12;11.02;;;9.30;;
5752;SDS011;2901;42.140;24.760;2023-06-14T09:38:57;8.88;;;8.38;;
5752;SDS011;2901;42.140;24.760;2023-06-14T09:41:36;9.50;;;8.88;;
5752;SDS011;2901;42.140;24.760;2023-06-14T09:44:05;10.02;;;9.07;;
5752;SDS011;2901;42.140;24.760;2023-06-14T09:46:32;11.38;;;8.52;;
5752;SDS011;2901;42.140;24.760;2023-06-14T09:48:58;8.73;;;8.05;;
5752;SDS011;2901;42.140;24.760;2023-06-14T09:51:25;8.70;;;8.07;;
5752;SDS011;2901;42.140;24.760;2023-06-14T09:53:52;9.23;;;8.60;;
5752;SDS011;2901;42.140;24.760;2023-06-14T09:56:31;8.57;;;7.97;;
5752;SDS011;2901;42.140;24.760;2023-06-14T09:59:00;9.18;;;8.57;;
5752;SDS011;2901;42.140;24.760;2023-06-14T10:01:30;9.45;;;8.65;;
5752;SDS011;2901;42.140;24.760;2023-06-14T10:04:03;8.77;;;8.25;;
5752;SDS011;2901;42.140;24.760;2023-06-14T10:06:30;8.38;;;7.75;;
5752;SDS011;2901;42.140;24.760;2023-06-14T10:08:57;8.90;;;8.20;;
5752;SDS011;2901;42.140;24.760;2023-06-14T10:11:27;11.10;;;9.70;;
5752;SDS011;2901;42.140;24.760;2023-06-14T10:13:55;13.18;;;9.10;;
5752;SDS011;2901;42.140;24.760;2023-06-14T10:19:19;21.55;;;11.35;;
5752;SDS011;2901;42.140;24.760;2023-06-14T10:24:51;8.77;;;7.93;;
5752;SDS011;2901;42.140;24.760;2023-06-14T10:27:17;9.77;;;9.02;;
5752;SDS011;2901;42.140;24.760;2023-06-14T10:32:20;11.32;;;8.77;;
5752;SDS011;2901;42.140;24.760;2023-06-14T10:34:49;8.68;;;8.02;;
5752;SDS011;2901;42.140;24.760;2023-06-14T10:37:19;9.07;;;7.90;;
5752;SDS011;2901;42.140;24.760;2023-06-14T10:39:44;9.63;;;8.68;;
5752;SDS011;2901;42.140;24.760;2023-06-14T10:42:14;11.55;;;8.32;;
5752;SDS011;2901;42.140;24.760;2023-06-14T10:44:49;10.43;;;8.93;;
5752;SDS011;2901;42.140;24.760;2023-06-14T10:49:50;9.10;;;7.88;;
5752;SDS011;2901;42.140;24.760;2023-06-14T10:52:23;8.65;;;7.88;;
5752;SDS011;2901;42.140;24.760;2023-06-14T10:55:04;8.68;;;8.27;;
5752;SDS011;2901;42.140;24.760;2023-06-14T10:57:47;9.20;;;8.43;;
5752;SDS011;2901;42.140;24.760;2023-06-14T11:00:17;12.95;;;8.80;;
5752;SDS011;2901;42.140;24.760;2023-06-14T11:05:28;10.90;;;8.65;;
5752;SDS011;2901;42.140;24.760;2023-06-14T11:10:36;10.52;;;8.70;;
5752;SDS011;2901;42.140;24.760;2023-06-14T11:13:02;8.27;;;7.78;;
5752;SDS011;2901;42.140;24.760;2023-06-14T11:15:31;8.45;;;7.63;;
5752;SDS011;2901;42.140;24.760;2023-06-14T11:18:00;9.10;;;7.50;;
5752;SDS011;2901;42.140;24.760;2023-06-14T11:20:26;9.57;;;8.88;;
5752;SDS011;2901;42.140;24.760;2023-06-14T11:22:53;10.43;;;9.55;;
5752;SDS011;2901;42.140;24.760;2023-06-14T11:25:19;10.13;;;9.18;;
5752;SDS011;2901;42.140;24.760;2023-06-14T11:27:44;9.43;;;8.43;;
5752;SDS011;2901;42.140;24.760;2023-06-14T11:30:10;8.80;;;8.05;;
5752;SDS011;2901;42.140;24.760;2023-06-14T11:32:39;9.43;;;8.57;;
5752;SDS011;2901;42.140;24.760;2023-06-14T11:35:04;19.95;;;12.05;;
5752;SDS011;2901;42.140;24.760;2023-06-14T11:37:30;9.02;;;8.40;;
5752;SDS011;2901;42.140;24.760;2023-06-14T11:39:59;10.48;;;8.75;;
5752;SDS011;2901;42.140;24.760;2023-06-14T11:42:28;12.93;;;8.90;;
5752;SDS011;2901;42.140;24.760;2023-06-14T11:44:55;15.15;;;8.88;;
5752;SDS011;2901;42.140;24.760;2023-06-14T11:47:20;9.93;;;9.10;;
5752;SDS011;2901;42.140;24.760;2023-06-14T11:49:47;27.77;;;15.25;;
5752;SDS011;2901;42.140;24.760;2023-06-14T11:52:13;8.77;;;8.38;;
5752;SDS011;2901;42.140;24.760;2023-06-14T11:54:38;10.50;;;9.77;;
5752;SDS011;2901;42.140;24.760;2023-06-14T11:57:07;9.43;;;8.65;;
5752;SDS011;2901;42.140;24.760;2023-06-14T11:59:39;9.15;;;8.30;;
5752;SDS011;2901;42.140;24.760;2023-06-14T12:02:05;13.70;;;9.75;;
5752;SDS011;2901;42.140;24.760;2023-06-14T12:04:32;12.48;;;9.73;;
5752;SDS011;2901;42.140;24.760;2023-06-14T12:06:57;10.50;;;9.70;;
5752;SDS011;2901;42.140;24.760;2023-06-14T12:09:39;10.32;;;9.50;;
5752;SDS011;2901;42.140;24.760;2023-06-14T12:12:05;11.43;;;9.85;;
5752;SDS011;2901;42.140;24.760;2023-06-14T12:14:31;9.40;;;9.00;;
5752;SDS011;2901;42.140;24.760;2023-06-14T12:17:03;10.30;;;9.80;;
5752;SDS011;2901;42.140;24.760;2023-06-14T12:19:33;13.43;;;11.52;;
5752;SDS011;2901;42.140;24.760;2023-06-14T12:22:06;10.63;;;9.73;;
5752;SDS011;2901;42.140;24.760;2023-06-14T12:24:34;10.82;;;10.02;;
5752;SDS011;2901;42.140;24.760;2023-06-14T12:27:00;11.93;;;10.93;;
5752;SDS011;2901;42.140;24.760;2023-06-14T12:29:28;10.27;;;9.65;;
5752;SDS011;2901;42.140;24.760;2023-06-14T12:31:53;10.65;;;10.05;;
5752;SDS011;2901;42.140;24.760;2023-06-14T12:34:21;11.95;;;10.82;;
5752;SDS011;2901;42.140;24.760;2023-06-14T12:36:47;10.45;;;9.57;;
5752;SDS011;2901;42.140;24.760;2023-06-14T12:39:12;10.35;;;9.57;;
5752;SDS011;2901;42.140;24.760;2023-06-14T12:41:38;10.27;;;9.65;;
5752;SDS011;2901;42.140;24.760;2023-06-14T12:44:04;10.82;;;10.02;;
5752;SDS011;2901;42.140;24.760;2023-06-14T12:46:32;10.10;;;9.60;;
5752;SDS011;2901;42.140;24.760;2023-06-14T12:48:58;10.55;;;9.80;;
5752;SDS011;2901;42.140;24.760;2023-06-14T12:51:23;10.82;;;10.13;;
5752;SDS011;2901;42.140;24.760;2023-06-14T12:53:50;10.88;;;9.88;;
5752;SDS011;2901;42.140;24.760;2023-06-14T12:56:15;12.90;;;12.02;;
5752;SDS011;2901;42.140;24.760;2023-06-14T12:58:41;15.38;;;11.43;;
5752;SDS011;2901;42.140;24.760;2023-06-14T13:01:07;9.45;;;8.85;;
5752;SDS011;2901;42.140;24.760;2023-06-14T13:03:33;10.50;;;9.65;;
5752;SDS011;2901;42.140;24.760;2023-06-14T13:05:59;10.48;;;9.52;;
5752;SDS011;2901;42.140;24.760;2023-06-14T13:08:26;11.52;;;8.38;;
5752;SDS011;2901;42.140;24.760;2023-06-14T13:10:51;8.75;;;8.18;;
5752;SDS011;2901;42.140;24.760;2023-06-14T13:13:17;11.63;;;10.30;;
5752;SDS011;2901;42.140;24.760;2023-06-14T13:15:42;9.15;;;8.75;;
5752;SDS011;2901;42.140;24.760;2023-06-14T13:18:08;10.48;;;9.52;;
5752;SDS011;2901;42.140;24.760;2023-06-14T13:20:34;9.25;;;8.63;;
5752;SDS011;2901;42.140;24.760;2023-06-14T13:22:59;9.90;;;8.82;;
5752;SDS011;2901;42.140;24.760;2023-06-14T13:25:25;10.38;;;9.30;;
5752;SDS011;2901;42.140;24.760;2023-06-14T13:27:50;10.63;;;10.13;;
5752;SDS011;2901;42.140;24.760;2023-06-14T13:30:16;9.45;;;8.93;;
5752;SDS011;2901;42.140;24.760;2023-06-14T13:32:41;9.77;;;8.88;;
5752;SDS011;2901;42.140;24.760;2023-06-14T13:35:07;11.30;;;9.70;;
5752;SDS011;2901;42.140;24.760;2023-06-14T13:37:33;9.80;;;9.05;;
5752;SDS011;2901;42.140;24.760;2023-06-14T13:39:58;9.55;;;9.15;;
5752;SDS011;2901;42.140;24.760;2023-06-14T13:42:24;9.32;;;8.73;;
5752;SDS011;2901;42.140;24.760;2023-06-14T13:44:49;10.10;;;8.88;;
5752;SDS011;2901;42.140;24.760;2023-06-14T13:47:16;9.52;;;8.82;;
5752;SDS011;2901;42.140;24.760;2023-06-14T13:49:41;9.40;;;8.55;;
5752;SDS011;2901;42.140;24.760;2023-06-14T13:52:07;11.43;;;8.45;;
5752;SDS011;2901;42.140;24.760;2023-06-14T13:54:33;9.75;;;9.00;;
5752;SDS011;2901;42.140;24.760;2023-06-14T13:56:58;11.38;;;9.90;;
5752;SDS011;2901;42.140;24.760;2023-06-14T13:59:24;9.30;;;8.38;;
5752;SDS011;2901;42.140;24.760;2023-06-14T14:01:49;8.98;;;8.15;;
5752;SDS011;2901;42.140;24.760;2023-06-14T14:04:15;12.35;;;8.32;;
5752;SDS011;2901;42.140;24.760;2023-06-14T14:06:40;9.15;;;8.30;;
5752;SDS011;2901;42.140;24.760;2023-06-14T14:09:06;8.25;;;6.68;;
5752;SDS011;2901;42.140;24.760;2023-06-14T14:11:32;8.93;;;6.53;;
5752;SDS011;2901;42.140;24.760;2023-06-14T14:13:58;7.10;;;6.45;;
5752;SDS011;2901;42.140;24.760;2023-06-14T14:16:24;11.85;;;6.38;;
5752;SDS011;2901;42.140;24.760;2023-06-14T14:18:49;5.30;;;4.90;;
5752;SDS011;2901;42.140;24.760;2023-06-14T14:21:14;5.57;;;5.25;;
5752;SDS011;2901;42.140;24.760;2023-06-14T14:23:40;5.20;;;4.90;;
5752;SDS011;2901;42.140;24.760;2023-06-14T14:26:05;5.22;;;4.80;;
5752;SDS011;2901;42.140;24.760;2023-06-14T14:28:31;4.63;;;4.43;;
5752;SDS011;2901;42.140;24.760;2023-06-14T14:30:57;6.57;;;4.72;;
5752;SDS011;2901;42.140;24.760;2023-06-14T14:33:23;5.25;;;4.32;;
5752;SDS011;2901;42.140;24.760;2023-06-14T14:35:48;8.00;;;5.82;;
5752;SDS011;2901;42.140;24.760;2023-06-14T14:38:14;4.97;;;4.57;;
5752;SDS011;2901;42.140;24.760;2023-06-14T14:40:41;4.57;;;4.18;;
5752;SDS011;2901;42.140;24.760;2023-06-14T14:43:07;4.50;;;4.03;;
5752;SDS011;2901;42.140;24.760;2023-06-14T14:45:32;4.00;;;3.70;;
5752;SDS011;2901;42.140;24.760;2023-06-14T14:47:58;3.78;;;3.50;;
5752;SDS011;2901;42.140;24.760;2023-06-14T14:50:24;4.88;;;4.47;;
5752;SDS011;2901;42.140;24.760;2023-06-14T14:52:50;4.90;;;3.75;;
5752;SDS011;2901;42.140;24.760;2023-06-14T14:55:16;4.57;;;4.20;;
5752;SDS011;2901;42.140;24.760;2023-06-14T14:57:41;6.05;;;4.00;;
5752;SDS011;2901;42.140;24.760;2023-06-14T15:00:07;3.42;;;3.28;;
5752;SDS011;2901;42.140;24.760;2023-06-14T15:02:34;4.50;;;4.30;;
5752;SDS011;2901;42.140;24.760;2023-06-14T15:04:59;3.92;;;3.65;;
5752;SDS011;2901;42.140;24.760;2023-06-14T15:07:28;4.50;;;4.18;;
5752;SDS011;2901;42.140;24.760;2023-06-14T15:09:55;4.85;;;4.45;;
5752;SDS011;2901;42.140;24.760;2023-06-14T15:12:20;5.72;;;4.38;;
5752;SDS011;2901;42.140;24.760;2023-06-14T15:14:49;4.07;;;3.78;;